sensor_id;sensor_type;location;lat;lon;timestamp;pressure;altitude;pressure_sealevel;temperature;humidity
61900;BME280;47853;55.890;37.664;2022-10-18T00:01:24;99898.75;;;7.81;83.10
61900;BME280;47853;55.890;37.664;2022-10-18T00:03:49;99888.06;;;7.82;82.89
61900;BME280;47853;55.890;37.664;2022-10-18T00:06:15;99882.06;;;7.90;82.72
61900;BME280;47853;55.890;37.664;2022-10-18T00:08:40;99866.63;;;7.86;82.22
61900;BME280;47853;55.890;37.664;2022-10-18T00:11:06;99878.19;;;7.84;82.57
61900;BME280;47853;55.890;37.664;2022-10-18T00:13:31;99874.41;;;7.87;82.38
61900;BME280;47853;55.890;37.664;2022-10-18T00:15:59;99867.03;;;7.81;82.27
61900;BME280;47853;55.890;37.664;2022-10-18T00:18:25;99861.06;;;7.89;82.27
61900;BME280;47853;55.890;37.664;2022-10-18T00:20:58;99869.84;;;7.79;81.99
61900;BME280;47853;55.890;37.664;2022-10-18T00:23:24;99865.66;;;7.87;81.91
61900;BME280;47853;55.890;37.664;2022-10-18T00:25:58;99839.47;;;7.93;81.65
61900;BME280;47853;55.890;37.664;2022-10-18T00:28:23;99834.63;;;7.98;81.24
61900;BME280;47853;55.890;37.664;2022-10-18T00:30:49;99848.13;;;8.15;80.43
61900;BME280;47853;55.890;37.664;2022-10-18T00:33:14;99848.53;;;8.01;80.78
61900;BME280;47853;55.890;37.664;2022-10-18T00:35:39;99835.84;;;7.94;80.58
61900;BME280;47853;55.890;37.664;2022-10-18T00:38:05;99829.47;;;7.97;80.81
61900;BME280;47853;55.890;37.664;2022-10-18T00:40:30;99837.13;;;8.00;80.50
61900;BME280;47853;55.890;37.664;2022-10-18T00:42:55;99820.00;;;7.94;80.96
61900;BME280;47853;55.890;37.664;2022-10-18T00:45:23;99819.56;;;7.99;80.89
61900;BME280;47853;55.890;37.664;2022-10-18T00:47:56;99826.41;;;7.92;80.73
61900;BME280;47853;55.890;37.664;2022-10-18T00:50:24;99822.78;;;7.93;81.07
61900;BME280;47853;55.890;37.664;2022-10-18T00:52:56;99823.91;;;7.80;81.27
61900;BME280;47853;55.890;37.664;2022-10-18T00:55:24;99809.72;;;7.72;81.37
61900;BME280;47853;55.890;37.664;2022-10-18T00:57:51;99801.63;;;7.83;81.62
61900;BME280;47853;55.890;37.664;2022-10-18T01:00:17;99811.66;;;7.79;81.64
61900;BME280;47853;55.890;37.664;2022-10-18T01:02:44;99803.44;;;7.82;81.46
61900;BME280;47853;55.890;37.664;2022-10-18T01:05:12;99802.59;;;7.72;81.37
61900;BME280;47853;55.890;37.664;2022-10-18T01:18:40;99810.97;;;7.67;81.67
61900;BME280;47853;55.890;37.664;2022-10-18T01:21:17;99800.94;;;7.61;82.27
61900;BME280;47853;55.890;37.664;2022-10-18T01:24:01;99799.97;;;7.62;82.33
61900;BME280;47853;55.890;37.664;2022-10-18T01:29:36;99804.41;;;7.62;82.65
61900;BME280;47853;55.890;37.664;2022-10-18T01:32:09;99798.00;;;7.54;82.83
61900;BME280;47853;55.890;37.664;2022-10-18T01:34:38;99793.56;;;7.65;82.95
61900;BME280;47853;55.890;37.664;2022-10-18T01:37:08;99788.84;;;7.68;83.11
61900;BME280;47853;55.890;37.664;2022-10-18T01:39:37;99770.19;;;7.60;83.43
61900;BME280;47853;55.890;37.664;2022-10-18T01:42:09;99788.13;;;7.57;83.24
61900;BME280;47853;55.890;37.664;2022-10-18T01:44:36;99778.53;;;7.55;83.23
61900;BME280;47853;55.890;37.664;2022-10-18T01:47:05;99787.44;;;7.54;83.49
61900;BME280;47853;55.890;37.664;2022-10-18T01:49:31;99782.44;;;7.51;83.93
61900;BME280;47853;55.890;37.664;2022-10-18T01:51:57;99775.47;;;7.50;83.97
61900;BME280;47853;55.890;37.664;2022-10-18T01:54:32;99772.66;;;7.32;84.35
61900;BME280;47853;55.890;37.664;2022-10-18T01:57:11;99779.63;;;7.33;84.84
61900;BME280;47853;55.890;37.664;2022-10-18T01:59:50;99769.44;;;7.29;85.28
61900;BME280;47853;55.890;37.664;2022-10-18T02:07:52;99771.41;;;7.17;85.49
61900;BME280;47853;55.890;37.664;2022-10-18T02:10:33;99768.63;;;7.28;85.75
61900;BME280;47853;55.890;37.664;2022-10-18T02:13:01;99759.72;;;7.19;85.55
61900;BME280;47853;55.890;37.664;2022-10-18T02:15:33;99754.16;;;7.13;85.73
61900;BME280;47853;55.890;37.664;2022-10-18T02:18:04;99759.44;;;7.22;85.62
61900;BME280;47853;55.890;37.664;2022-10-18T02:20:30;99748.19;;;7.10;85.72
61900;BME280;47853;55.890;37.664;2022-10-18T02:22:58;99768.63;;;7.18;85.77
61900;BME280;47853;55.890;37.664;2022-10-18T02:25:36;99751.38;;;7.14;85.84
61900;BME280;47853;55.890;37.664;2022-10-18T02:28:03;99741.47;;;7.06;85.87
61900;BME280;47853;55.890;37.664;2022-10-18T02:30:36;99747.75;;;7.15;85.83
61900;BME280;47853;55.890;37.664;2022-10-18T02:33:17;99723.41;;;7.02;85.52
61900;BME280;47853;55.890;37.664;2022-10-18T02:35:51;99739.28;;;7.11;85.91
61900;BME280;47853;55.890;37.664;2022-10-18T02:38:19;99736.22;;;7.16;85.83
61900;BME280;47853;55.890;37.664;2022-10-18T02:40:47;99725.38;;;7.19;85.75
61900;BME280;47853;55.890;37.664;2022-10-18T02:43:13;99715.06;;;7.06;85.88
61900;BME280;47853;55.890;37.664;2022-10-18T02:45:38;99704.50;;;6.96;86.26
61900;BME280;47853;55.890;37.664;2022-10-18T02:48:04;99719.94;;;7.01;86.44
61900;BME280;47853;55.890;37.664;2022-10-18T02:50:29;99725.91;;;7.03;86.51
61900;BME280;47853;55.890;37.664;2022-10-18T02:52:54;99697.28;;;6.99;86.45
61900;BME280;47853;55.890;37.664;2022-10-18T02:55:20;99706.88;;;7.00;86.62
61900;BME280;47853;55.890;37.664;2022-10-18T02:57:45;99703.50;;;6.88;86.85
61900;BME280;47853;55.890;37.664;2022-10-18T03:00:11;99705.31;;;6.97;86.94
61900;BME280;47853;55.890;37.664;2022-10-18T03:02:36;99687.97;;;6.94;86.84
61900;BME280;47853;55.890;37.664;2022-10-18T03:05:02;99690.47;;;7.06;86.68
61900;BME280;47853;55.890;37.664;2022-10-18T03:07:27;99691.06;;;7.09;86.50
61900;BME280;47853;55.890;37.664;2022-10-18T03:09:52;99683.22;;;6.98;86.49
61900;BME280;47853;55.890;37.664;2022-10-18T03:12:18;99682.81;;;6.93;86.22
61900;BME280;47853;55.890;37.664;2022-10-18T03:14:43;99683.66;;;7.03;86.44
61900;BME280;47853;55.890;37.664;2022-10-18T03:17:08;99663.78;;;6.99;86.40
61900;BME280;47853;55.890;37.664;2022-10-18T03:19:34;99669.34;;;6.96;86.46
61900;BME280;47853;55.890;37.664;2022-10-18T03:21:59;99673.38;;;6.90;86.65
61900;BME280;47853;55.890;37.664;2022-10-18T03:24:24;99656.94;;;6.77;87.11
61900;BME280;47853;55.890;37.664;2022-10-18T03:26:50;99644.72;;;6.76;87.43
61900;BME280;47853;55.890;37.664;2022-10-18T03:29:16;99640.41;;;6.75;87.52
61900;BME280;47853;55.890;37.664;2022-10-18T03:31:42;99631.66;;;6.74;87.69
61900;BME280;47853;55.890;37.664;2022-10-18T03:34:07;99631.66;;;6.74;87.72
61900;BME280;47853;55.890;37.664;2022-10-18T03:36:32;99624.03;;;6.71;87.72
61900;BME280;47853;55.890;37.664;2022-10-18T03:38:58;99615.94;;;6.73;87.76
61900;BME280;47853;55.890;37.664;2022-10-18T03:41:23;99630.41;;;6.68;87.78
61900;BME280;47853;55.890;37.664;2022-10-18T03:43:49;99617.19;;;6.59;87.82
61900;BME280;47853;55.890;37.664;2022-10-18T03:46:14;99636.81;;;6.66;88.00
61900;BME280;47853;55.890;37.664;2022-10-18T03:48:39;99615.13;;;6.62;88.01
61900;BME280;47853;55.890;37.664;2022-10-18T03:51:05;99615.13;;;6.62;88.02
61900;BME280;47853;55.890;37.664;2022-10-18T03:53:30;99604.69;;;6.71;87.90
61900;BME280;47853;55.890;37.664;2022-10-18T03:55:56;99602.91;;;6.81;87.58
61900;BME280;47853;55.890;37.664;2022-10-18T03:58:21;99595.38;;;6.57;87.81
61900;BME280;47853;55.890;37.664;2022-10-18T04:00:51;99596.50;;;6.54;87.86
61900;BME280;47853;55.890;37.664;2022-10-18T04:03:17;99621.34;;;6.51;88.25
61900;BME280;47853;55.890;37.664;2022-10-18T04:05:44;99585.38;;;6.60;88.27
61900;BME280;47853;55.890;37.664;2022-10-18T04:08:09;99581.47;;;6.55;87.89
61900;BME280;47853;55.890;37.664;2022-10-18T04:10:36;99571.34;;;6.50;88.16
61900;BME280;47853;55.890;37.664;2022-10-18T04:13:02;99572.88;;;6.62;87.92
61900;BME280;47853;55.890;37.664;2022-10-18T04:15:33;99576.63;;;6.60;88.13
61900;BME280;47853;55.890;37.664;2022-10-18T04:17:59;99581.50;;;6.64;87.72
61900;BME280;47853;55.890;37.664;2022-10-18T04:23:34;99498.81;;;6.15;87.69
61900;BME280;47853;55.890;37.664;2022-10-18T04:26:00;99487.31;;;6.16;87.58
61900;BME280;47853;55.890;37.664;2022-10-18T04:28:34;99575.13;;;6.67;87.67
61900;BME280;47853;55.890;37.664;2022-10-18T04:31:02;99509.38;;;6.34;87.46
61900;BME280;47853;55.890;37.664;2022-10-18T04:33:28;99516.22;;;6.37;87.58
61900;BME280;47853;55.890;37.664;2022-10-18T04:35:56;99511.91;;;6.36;87.34
61900;BME280;47853;55.890;37.664;2022-10-18T04:38:22;99483.56;;;6.18;87.32
61900;BME280;47853;55.890;37.664;2022-10-18T04:40:47;99474.13;;;6.16;87.45
61900;BME280;47853;55.890;37.664;2022-10-18T04:43:13;99546.63;;;6.71;87.03
61900;BME280;47853;55.890;37.664;2022-10-18T04:45:38;99494.13;;;6.38;87.49
61900;BME280;47853;55.890;37.664;2022-10-18T04:48:04;99501.91;;;6.59;87.26
61900;BME280;47853;55.890;37.664;2022-10-18T04:50:30;99454.00;;;6.34;86.64
61900;BME280;47853;55.890;37.664;2022-10-18T04:52:55;99464.97;;;6.59;86.33
61900;BME280;47853;55.890;37.664;2022-10-18T04:55:20;99465.25;;;6.56;85.70
61900;BME280;47853;55.890;37.664;2022-10-18T04:57:46;99538.72;;;6.90;85.98
61900;BME280;47853;55.890;37.664;2022-10-18T05:00:12;99511.22;;;6.73;85.85
61900;BME280;47853;55.890;37.664;2022-10-18T05:02:37;99446.66;;;6.28;86.06
61900;BME280;47853;55.890;37.664;2022-10-18T05:05:03;99461.78;;;6.56;86.34
61900;BME280;47853;55.890;37.664;2022-10-18T05:07:29;99480.81;;;6.59;85.99
61900;BME280;47853;55.890;37.664;2022-10-18T05:09:54;99533.16;;;6.84;86.40
61900;BME280;47853;55.890;37.664;2022-10-18T05:12:20;99529.69;;;6.93;86.59
61900;BME280;47853;55.890;37.664;2022-10-18T05:14:45;99497.63;;;6.68;86.42
61900;BME280;47853;55.890;37.664;2022-10-18T05:17:10;99544.28;;;6.77;86.59
61900;BME280;47853;55.890;37.664;2022-10-18T05:19:36;99527.31;;;7.09;86.39
61900;BME280;47853;55.890;37.664;2022-10-18T05:22:01;99541.78;;;6.95;86.08
61900;BME280;47853;55.890;37.664;2022-10-18T05:24:26;99539.69;;;6.89;86.02
61900;BME280;47853;55.890;37.664;2022-10-18T05:26:52;99538.72;;;6.90;86.15
61900;BME280;47853;55.890;37.664;2022-10-18T05:29:17;99540.81;;;6.96;86.17
61900;BME280;47853;55.890;37.664;2022-10-18T05:31:42;99537.34;;;6.86;86.23
61900;BME280;47853;55.890;37.664;2022-10-18T05:34:08;99549.69;;;6.86;86.16
61900;BME280;47853;55.890;37.664;2022-10-18T05:36:33;99549.53;;;6.97;86.07
61900;BME280;47853;55.890;37.664;2022-10-18T05:38:59;99537.47;;;6.85;86.12
61900;BME280;47853;55.890;37.664;2022-10-18T05:41:26;99538.31;;;6.85;86.21
61900;BME280;47853;55.890;37.664;2022-10-18T05:43:51;99522.47;;;6.85;85.98
61900;BME280;47853;55.890;37.664;2022-10-18T05:46:17;99538.84;;;6.89;85.83
61900;BME280;47853;55.890;37.664;2022-10-18T05:48:43;99540.53;;;7.00;85.60
61900;BME280;47853;55.890;37.664;2022-10-18T05:51:08;99545.22;;;7.06;85.92
61900;BME280;47853;55.890;37.664;2022-10-18T05:53:34;99540.22;;;7.13;85.45
61900;BME280;47853;55.890;37.664;2022-10-18T05:56:00;99530.78;;;7.00;85.27
61900;BME280;47853;55.890;37.664;2022-10-18T05:58:25;99519.13;;;7.03;85.29
61900;BME280;47853;55.890;37.664;2022-10-18T06:00:51;99533.00;;;7.05;85.08
61900;BME280;47853;55.890;37.664;2022-10-18T06:03:16;99530.66;;;7.02;85.34
61900;BME280;47853;55.890;37.664;2022-10-18T06:05:42;99515.03;;;7.18;85.22
61900;BME280;47853;55.890;37.664;2022-10-18T06:08:07;99498.69;;;6.95;85.01
61900;BME280;47853;55.890;37.664;2022-10-18T06:10:33;99483.53;;;7.07;85.00
61900;BME280;47853;55.890;37.664;2022-10-18T06:12:58;99486.44;;;7.14;85.20
61900;BME280;47853;55.890;37.664;2022-10-18T06:15:23;99484.38;;;7.07;85.46
61900;BME280;47853;55.890;37.664;2022-10-18T06:17:49;99477.84;;;7.02;85.84
61900;BME280;47853;55.890;37.664;2022-10-18T06:20:14;99479.22;;;6.96;86.11
61900;BME280;47853;55.890;37.664;2022-10-18T06:22:39;99480.03;;;7.06;86.31
61900;BME280;47853;55.890;37.664;2022-10-18T06:25:05;99471.75;;;6.91;86.42
61900;BME280;47853;55.890;37.664;2022-10-18T06:27:32;99456.03;;;7.00;86.24
61900;BME280;47853;55.890;37.664;2022-10-18T06:29:58;99448.34;;;7.06;86.23
61900;BME280;47853;55.890;37.664;2022-10-18T06:32:23;99436.09;;;7.15;86.16
61900;BME280;47853;55.890;37.664;2022-10-18T06:34:48;99461.44;;;6.98;86.40
61900;BME280;47853;55.890;37.664;2022-10-18T06:37:14;99447.25;;;6.99;87.00
61900;BME280;47853;55.890;37.664;2022-10-18T06:39:39;99425.91;;;6.92;87.96
61900;BME280;47853;55.890;37.664;2022-10-18T06:42:04;99390.81;;;7.10;88.55
61900;BME280;47853;55.890;37.664;2022-10-18T06:44:30;99391.75;;;7.19;88.36
61900;BME280;47853;55.890;37.664;2022-10-18T06:46:55;99384.81;;;7.18;88.53
61900;BME280;47853;55.890;37.664;2022-10-18T06:49:21;99371.59;;;7.18;88.89
61900;BME280;47853;55.890;37.664;2022-10-18T06:51:46;99352.56;;;7.14;89.23
61900;BME280;47853;55.890;37.664;2022-10-18T06:54:11;99332.03;;;7.08;89.90
61900;BME280;47853;55.890;37.664;2022-10-18T06:56:37;99329.28;;;7.00;90.49
61900;BME280;47853;55.890;37.664;2022-10-18T06:59:03;99335.63;;;7.07;91.21
61900;BME280;47853;55.890;37.664;2022-10-18T07:01:29;99344.44;;;6.97;91.94
61900;BME280;47853;55.890;37.664;2022-10-18T07:03:55;99335.16;;;6.93;92.53
61900;BME280;47853;55.890;37.664;2022-10-18T07:06:21;99322.59;;;6.67;93.22
61900;BME280;47853;55.890;37.664;2022-10-18T07:08:47;99321.63;;;6.68;94.43
61900;BME280;47853;55.890;37.664;2022-10-18T07:11:19;99309.78;;;6.73;95.58
61900;BME280;47853;55.890;37.664;2022-10-18T07:13:44;99315.03;;;6.45;96.05
61900;BME280;47853;55.890;37.664;2022-10-18T07:16:12;99278.41;;;6.42;97.08
61900;BME280;47853;55.890;37.664;2022-10-18T07:18:40;99268.09;;;6.38;97.83
61900;BME280;47853;55.890;37.664;2022-10-18T07:21:17;99276.94;;;6.57;98.52
61900;BME280;47853;55.890;37.664;2022-10-18T07:23:54;99271.38;;;6.60;98.87
61900;BME280;47853;55.890;37.664;2022-10-18T07:26:28;99273.16;;;6.60;99.11
61900;BME280;47853;55.890;37.664;2022-10-18T07:29:03;99269.44;;;6.52;99.13
61900;BME280;47853;55.890;37.664;2022-10-18T07:31:28;99258.72;;;6.64;99.23
61900;BME280;47853;55.890;37.664;2022-10-18T07:33:54;99245.66;;;6.62;99.77
61900;BME280;47853;55.890;37.664;2022-10-18T07:36:20;99232.28;;;6.74;99.69
61900;BME280;47853;55.890;37.664;2022-10-18T07:38:45;99212.34;;;6.89;99.55
61900;BME280;47853;55.890;37.664;2022-10-18T07:41:12;99173.94;;;6.95;99.52
61900;BME280;47853;55.890;37.664;2022-10-18T07:43:40;99168.22;;;7.00;98.99
61900;BME280;47853;55.890;37.664;2022-10-18T07:46:06;99155.34;;;7.15;98.72
61900;BME280;47853;55.890;37.664;2022-10-18T07:48:31;99145.34;;;7.26;98.61
61900;BME280;47853;55.890;37.664;2022-10-18T07:50:58;99129.97;;;7.22;98.33
61900;BME280;47853;55.890;37.664;2022-10-18T07:53:23;99108.38;;;7.26;98.06
61900;BME280;47853;55.890;37.664;2022-10-18T07:55:49;99104.38;;;7.22;98.02
61900;BME280;47853;55.890;37.664;2022-10-18T07:58:14;99102.41;;;7.24;97.75
61900;BME280;47853;55.890;37.664;2022-10-18T08:00:40;99059.13;;;6.99;97.64
61900;BME280;47853;55.890;37.664;2022-10-18T08:03:05;99082.19;;;7.33;97.34
61900;BME280;47853;55.890;37.664;2022-10-18T08:05:31;99078.88;;;7.13;97.47
61900;BME280;47853;55.890;37.664;2022-10-18T08:07:56;99056.47;;;7.17;97.54
61900;BME280;47853;55.890;37.664;2022-10-18T08:10:22;99057.00;;;7.21;97.79
61900;BME280;47853;55.890;37.664;2022-10-18T08:12:47;99013.94;;;7.02;98.05
61900;BME280;47853;55.890;37.664;2022-10-18T08:15:13;99030.31;;;7.06;97.97
61900;BME280;47853;55.890;37.664;2022-10-18T08:17:38;98987.75;;;7.09;98.39
61900;BME280;47853;55.890;37.664;2022-10-18T08:20:04;98991.13;;;6.93;98.79
61900;BME280;47853;55.890;37.664;2022-10-18T08:22:30;98944.53;;;6.84;99.06
61900;BME280;47853;55.890;37.664;2022-10-18T08:24:55;98938.19;;;6.94;99.56
61900;BME280;47853;55.890;37.664;2022-10-18T08:27:21;98912.19;;;6.81;99.76
61900;BME280;47853;55.890;37.664;2022-10-18T08:29:46;98896.41;;;6.63;100.00
61900;BME280;47853;55.890;37.664;2022-10-18T08:32:12;98916.56;;;6.73;100.00
61900;BME280;47853;55.890;37.664;2022-10-18T08:34:37;98894.53;;;6.82;100.00
61900;BME280;47853;55.890;37.664;2022-10-18T08:37:03;98890.72;;;6.76;100.00
61900;BME280;47853;55.890;37.664;2022-10-18T08:39:28;98869.69;;;6.93;100.00
61900;BME280;47853;55.890;37.664;2022-10-18T08:44:48;98827.72;;;6.81;100.00
61900;BME280;47853;55.890;37.664;2022-10-18T08:47:25;98819.03;;;6.89;100.00
61900;BME280;47853;55.890;37.664;2022-10-18T08:50:02;98814.94;;;7.03;100.00
61900;BME280;47853;55.890;37.664;2022-10-18T08:57:34;98827.06;;;7.22;100.00
61900;BME280;47853;55.890;37.664;2022-10-18T09:00:04;98829.25;;;7.35;100.00
61900;BME280;47853;55.890;37.664;2022-10-18T09:08:06;98825.31;;;7.39;100.00
61900;BME280;47853;55.890;37.664;2022-10-18T09:10:43;98834.09;;;7.48;100.00
61900;BME280;47853;55.890;37.664;2022-10-18T09:21:46;98825.84;;;7.60;100.00
61900;BME280;47853;55.890;37.664;2022-10-18T09:24:26;98814.63;;;7.66;100.00
61900;BME280;47853;55.890;37.664;2022-10-18T09:27:11;98797.13;;;7.73;100.00
61900;BME280;47853;55.890;37.664;2022-10-18T09:35:14;98768.88;;;8.23;98.97
61900;BME280;47853;55.890;37.664;2022-10-18T09:37:41;98754.16;;;8.04;98.48
61900;BME280;47853;55.890;37.664;2022-10-18T09:40:21;98757.81;;;7.95;98.27
61900;BME280;47853;55.890;37.664;2022-10-18T09:42:58;98756.81;;;8.12;98.33
61900;BME280;47853;55.890;37.664;2022-10-18T09:45:35;98755.56;;;8.65;97.90
61900;BME280;47853;55.890;37.664;2022-10-18T09:48:13;98732.88;;;8.70;97.01
61900;BME280;47853;55.890;37.664;2022-10-18T09:50:51;98720.44;;;8.79;96.28
61900;BME280;47853;55.890;37.664;2022-10-18T09:56:27;98718.44;;;8.81;94.37
61900;BME280;47853;55.890;37.664;2022-10-18T09:58:54;98712.25;;;8.58;94.17
61900;BME280;47853;55.890;37.664;2022-10-18T10:01:24;98696.19;;;8.67;94.19
61900;BME280;47853;55.890;37.664;2022-10-18T10:03:51;98688.34;;;8.26;94.48
61900;BME280;47853;55.890;37.664;2022-10-18T10:06:28;98681.19;;;8.51;94.86
61900;BME280;47853;55.890;37.664;2022-10-18T10:09:07;98675.41;;;8.39;94.52
61900;BME280;47853;55.890;37.664;2022-10-18T10:11:43;98664.78;;;8.00;95.17
61900;BME280;47853;55.890;37.664;2022-10-18T10:14:16;98670.00;;;8.24;95.41
61900;BME280;47853;55.890;37.664;2022-10-18T10:16:46;98659.41;;;8.24;95.67
61900;BME280;47853;55.890;37.664;2022-10-18T10:19:20;98641.50;;;8.35;95.95
61900;BME280;47853;55.890;37.664;2022-10-18T10:21:46;98651.66;;;8.23;96.43
61900;BME280;47853;55.890;37.664;2022-10-18T10:24:23;98635.66;;;8.56;96.26
61900;BME280;47853;55.890;37.664;2022-10-18T10:26:49;98644.19;;;8.75;96.07
61900;BME280;47853;55.890;37.664;2022-10-18T10:29:46;98654.03;;;8.58;95.51
61900;BME280;47853;55.890;37.664;2022-10-18T10:32:14;98646.25;;;8.48;95.50
61900;BME280;47853;55.890;37.664;2022-10-18T10:34:40;98612.38;;;8.83;95.53
61900;BME280;47853;55.890;37.664;2022-10-18T10:37:33;98617.91;;;8.33;95.18
61900;BME280;47853;55.890;37.664;2022-10-18T10:40:17;98604.72;;;8.17;95.88
61900;BME280;47853;55.890;37.664;2022-10-18T10:45:22;98626.19;;;8.30;97.33
61900;BME280;47853;55.890;37.664;2022-10-18T10:47:48;98596.69;;;8.02;97.56
61900;BME280;47853;55.890;37.664;2022-10-18T10:50:25;98607.47;;;8.32;98.17
61900;BME280;47853;55.890;37.664;2022-10-18T10:52:52;98585.50;;;8.31;98.84
61900;BME280;47853;55.890;37.664;2022-10-18T10:55:32;98599.13;;;8.83;98.62
61900;BME280;47853;55.890;37.664;2022-10-18T10:57:58;98590.41;;;8.97;98.15
61900;BME280;47853;55.890;37.664;2022-10-18T11:00:41;98569.84;;;9.08;97.14
61900;BME280;47853;55.890;37.664;2022-10-18T11:03:13;98589.41;;;9.22;96.76
61900;BME280;47853;55.890;37.664;2022-10-18T11:05:45;98565.00;;;8.65;96.51
61900;BME280;47853;55.890;37.664;2022-10-18T11:08:13;98573.00;;;8.80;96.61
61900;BME280;47853;55.890;37.664;2022-10-18T11:18:48;98584.16;;;8.35;99.25
61900;BME280;47853;55.890;37.664;2022-10-18T11:21:22;98569.97;;;8.28;100.00
61900;BME280;47853;55.890;37.664;2022-10-18T11:23:50;98556.56;;;8.30;100.00
61900;BME280;47853;55.890;37.664;2022-10-18T11:26:46;98558.13;;;8.47;100.00
61900;BME280;47853;55.890;37.664;2022-10-18T11:29:41;98545.75;;;8.39;100.00
61900;BME280;47853;55.890;37.664;2022-10-18T11:32:17;98571.16;;;8.57;100.00
61900;BME280;47853;55.890;37.664;2022-10-18T11:38:24;98550.06;;;8.72;100.00
61900;BME280;47853;55.890;37.664;2022-10-18T11:41:42;98567.72;;;8.80;100.00
61900;BME280;47853;55.890;37.664;2022-10-18T11:44:40;98559.56;;;8.81;100.00
61900;BME280;47853;55.890;37.664;2022-10-18T11:50:07;98549.09;;;9.11;100.00
61900;BME280;47853;55.890;37.664;2022-10-18T11:53:07;98558.81;;;9.19;100.00
61900;BME280;47853;55.890;37.664;2022-10-18T11:55:43;98561.84;;;9.31;100.00
61900;BME280;47853;55.890;37.664;2022-10-18T12:01:04;98555.94;;;9.59;100.00
61900;BME280;47853;55.890;37.664;2022-10-18T12:03:53;98550.09;;;9.64;100.00
61900;BME280;47853;55.890;37.664;2022-10-18T12:06:26;98549.00;;;9.73;100.00
61900;BME280;47853;55.890;37.664;2022-10-18T12:09:21;98545.34;;;9.74;100.00
61900;BME280;47853;55.890;37.664;2022-10-18T12:11:54;98552.38;;;9.97;100.00
61900;BME280;47853;55.890;37.664;2022-10-18T12:14:25;98557.47;;;10.13;100.00
61900;BME280;47853;55.890;37.664;2022-10-18T12:16:54;98562.41;;;10.16;100.00
61900;BME280;47853;55.890;37.664;2022-10-18T12:19:24;98550.53;;;10.12;100.00
61900;BME280;47853;55.890;37.664;2022-10-18T12:21:51;98549.63;;;10.05;100.00
61900;BME280;47853;55.890;37.664;2022-10-18T12:24:27;98561.38;;;10.33;100.00
61900;BME280;47853;55.890;37.664;2022-10-18T12:27:01;98544.38;;;10.27;100.00
61900;BME280;47853;55.890;37.664;2022-10-18T12:29:36;98560.16;;;10.35;100.00
61900;BME280;47853;55.890;37.664;2022-10-18T12:32:11;98562.03;;;10.35;100.00
61900;BME280;47853;55.890;37.664;2022-10-18T12:34:45;98565.47;;;10.50;100.00
61900;BME280;47853;55.890;37.664;2022-10-18T12:37:16;98559.88;;;10.60;100.00
61900;BME280;47853;55.890;37.664;2022-10-18T12:39:52;98541.91;;;10.62;100.00
61900;BME280;47853;55.890;37.664;2022-10-18T12:42:27;98557.13;;;10.90;100.00
61900;BME280;47853;55.890;37.664;2022-10-18T12:47:47;98551.72;;;10.83;100.00
61900;BME280;47853;55.890;37.664;2022-10-18T12:50:33;98551.97;;;10.88;100.00
61900;BME280;47853;55.890;37.664;2022-10-18T12:55:33;98554.19;;;11.07;100.00
61900;BME280;47853;55.890;37.664;2022-10-18T12:58:02;98563.81;;;11.36;100.00
61900;BME280;47853;55.890;37.664;2022-10-18T13:11:13;98539.25;;;11.27;100.00
61900;BME280;47853;55.890;37.664;2022-10-18T13:16:58;98576.44;;;11.27;100.00
61900;BME280;47853;55.890;37.664;2022-10-18T13:22:20;98580.16;;;11.33;100.00
61900;BME280;47853;55.890;37.664;2022-10-18T13:27:41;98572.56;;;11.30;99.75
61900;BME280;47853;55.890;37.664;2022-10-18T13:38:37;98572.19;;;11.33;96.52
61900;BME280;47853;55.890;37.664;2022-10-18T13:41:09;98584.31;;;11.42;95.98
61900;BME280;47853;55.890;37.664;2022-10-18T13:43:55;98586.50;;;11.32;95.52
61900;BME280;47853;55.890;37.664;2022-10-18T13:51:43;98596.59;;;11.43;94.67
61900;BME280;47853;55.890;37.664;2022-10-18T13:57:34;98597.03;;;11.47;93.21
61900;BME280;47853;55.890;37.664;2022-10-18T14:08:03;98595.31;;;11.61;91.83
61900;BME280;47853;55.890;37.664;2022-10-18T14:14:05;98604.16;;;11.40;91.40
61900;BME280;47853;55.890;37.664;2022-10-18T14:16:39;98598.06;;;11.46;91.44
61900;BME280;47853;55.890;37.664;2022-10-18T14:19:14;98595.94;;;11.63;90.55
61900;BME280;47853;55.890;37.664;2022-10-18T14:21:48;98605.25;;;11.52;89.80
61900;BME280;47853;55.890;37.664;2022-10-18T14:24:21;98599.16;;;11.58;89.63
61900;BME280;47853;55.890;37.664;2022-10-18T14:26:47;98619.81;;;11.56;89.30
61900;BME280;47853;55.890;37.664;2022-10-18T14:29:32;98604.63;;;11.50;89.18
61900;BME280;47853;55.890;37.664;2022-10-18T14:31:57;98597.91;;;11.54;89.08
61900;BME280;47853;55.890;37.664;2022-10-18T14:34:24;98608.94;;;11.51;88.20
61900;BME280;47853;55.890;37.664;2022-10-18T14:36:50;98614.34;;;11.65;87.27
61900;BME280;47853;55.890;37.664;2022-10-18T14:39:21;98613.22;;;11.52;87.38
61900;BME280;47853;55.890;37.664;2022-10-18T14:41:52;98614.16;;;11.66;87.36
61900;BME280;47853;55.890;37.664;2022-10-18T14:44:23;98613.75;;;11.41;87.39
61900;BME280;47853;55.890;37.664;2022-10-18T14:47:01;98641.06;;;11.56;87.30
61900;BME280;47853;55.890;37.664;2022-10-18T14:49:27;98630.81;;;11.53;87.12
61900;BME280;47853;55.890;37.664;2022-10-18T14:51:58;98645.59;;;11.56;87.17
61900;BME280;47853;55.890;37.664;2022-10-18T14:54:31;98646.75;;;11.75;86.90
61900;BME280;47853;55.890;37.664;2022-10-18T14:56:57;98637.16;;;11.52;86.80
61900;BME280;47853;55.890;37.664;2022-10-18T14:59:25;98635.22;;;11.68;86.60
61900;BME280;47853;55.890;37.664;2022-10-18T15:04:23;98651.78;;;11.41;87.19
61900;BME280;47853;55.890;37.664;2022-10-18T15:06:49;98652.03;;;11.46;87.18
61900;BME280;47853;55.890;37.664;2022-10-18T15:09:19;98656.28;;;11.41;87.03
61900;BME280;47853;55.890;37.664;2022-10-18T15:11:45;98653.50;;;11.49;86.77
61900;BME280;47853;55.890;37.664;2022-10-18T15:14:17;98668.47;;;11.28;86.79
61900;BME280;47853;55.890;37.664;2022-10-18T15:16:42;98675.47;;;11.36;86.92
61900;BME280;47853;55.890;37.664;2022-10-18T15:22:06;98688.69;;;11.08;87.30